Time;durP1;ratioP1;P1;durP2;ratioP2;P2;SDS_P1;SDS_P2;PMS_P1;PMS_P2;Temp;Humidity;BMP_temperature;BMP_pressure;BME280_temperature;BME280_humidity;BME280_pressure;Samples;Min_cycle;Max_cycle;Signal;HPM_P1;HPM_P2
2021/09/08 00:01:32;;;;;;;;;;;;;;;23.12;47.16;101914.88;5026608;28;1691;-40
2021/09/08 00:04:00;;;;;;;;;;;;;;;23.13;47.21;101918.41;5028766;28;1387;-40
2021/09/08 00:06:29;;;;;;;;;;;;;;;23.14;46.88;101923.69;5035440;28;1562;-40
2021/09/08 00:08:59;;;;;;;;;;;;;;;23.13;46.90;101915.72;5032134;28;1748;-40
2021/09/08 00:11:26;;;;;;;;;;;;;;;23.10;47.17;101913.28;5029047;28;1909;-40
2021/09/08 00:14:05;;;;;;;;;;;;;;;23.03;46.92;101911.13;5023568;28;1576;-40
2021/09/08 00:16:34;;;;;;;;;;;;;;;23.08;46.99;101910.75;5018555;28;1738;-40
2021/09/08 00:19:00;;;;;;;;;;;;;;;23.06;46.82;101914.53;5028215;28;1518;-40
2021/09/08 00:21:29;;;;;;;;;;;;;;;23.11;46.83;101923.09;5031693;28;1848;-40
2021/09/08 00:24:02;;;;;;;;;;;;;;;23.08;47.13;101935.03;5032307;28;1760;-40
2021/09/08 00:26:30;;;;;;;;;;;;;;;23.06;47.04;101915.41;5033176;28;1684;-40
2021/09/08 00:29:00;;;;;;;;;;;;;;;23.04;46.94;101922.78;5025484;28;1943;-40
2021/09/08 00:31:27;;;;;;;;;;;;;;;23.09;47.24;101925.91;5030067;28;1902;-40
2021/09/08 00:33:56;;;;;;;;;;;;;;;23.08;47.16;101928.75;5031518;28;1759;-41
2021/09/08 00:36:22;;;;;;;;;;;;;;;22.98;46.70;101937.63;5034269;28;1848;-40
2021/09/08 00:38:50;;;;;;;;;;;;;;;23.03;47.09;101916.50;5021584;28;1623;-40
2021/09/08 00:41:23;;;;;;;;;;;;;;;22.96;46.87;101915.34;5032829;28;1761;-40
2021/09/08 00:43:50;;;;;;;;;;;;;;;23.03;46.98;101930.00;5032150;28;1730;-40
2021/09/08 00:46:16;;;;;;;;;;;;;;;22.96;47.16;101914.44;5032506;28;1702;-40
2021/09/08 00:48:45;;;;;;;;;;;;;;;22.97;46.70;101922.41;5034061;28;1417;-40
2021/09/08 00:51:13;;;;;;;;;;;;;;;22.95;46.64;101912.75;5032230;28;1973;-40
2021/09/08 00:53:40;;;;;;;;;;;;;;;22.98;47.04;101924.16;5028717;28;1751;-40
2021/09/08 00:56:12;;;;;;;;;;;;;;;22.94;46.85;101922.69;5030589;28;1552;-40
2021/09/08 00:58:42;;;;;;;;;;;;;;;22.94;46.78;101928.09;5031846;28;1579;-41
2021/09/08 01:01:23;;;;;;;;;;;;;;;22.97;46.46;101922.41;5023160;28;1621;-40
2021/09/08 01:03:51;;;;;;;;;;;;;;;22.98;46.50;101936.78;5032712;28;1570;-40
2021/09/08 01:06:28;;;;;;;;;;;;;;;22.99;46.70;101925.00;5026451;28;1474;-40
2021/09/08 01:08:55;;;;;;;;;;;;;;;23.05;46.80;101931.72;5031074;28;1488;-40
2021/09/08 01:11:24;;;;;;;;;;;;;;;22.99;46.54;101930.38;5030367;28;1971;-40
2021/09/08 01:13:53;;;;;;;;;;;;;;;22.98;46.70;101934.09;5028349;28;1829;-40
2021/09/08 01:16:22;;;;;;;;;;;;;;;22.90;46.76;101940.16;5029890;28;1592;-40
2021/09/08 01:21:29;;;;;;;;;;;;;;;22.82;46.98;101932.72;5033043;28;1861;-40
2021/09/08 01:24:04;;;;;;;;;;;;;;;22.81;46.96;101931.00;5031451;28;1570;-40
2021/09/08 01:26:33;;;;;;;;;;;;;;;22.89;46.85;101935.72;5029275;28;1525;-40
2021/09/08 01:29:21;;;;;;;;;;;;;;;22.92;46.77;101948.97;5029460;28;1963;-40
2021/09/08 01:31:55;;;;;;;;;;;;;;;22.91;46.79;101928.34;5028286;28;1957;-40
2021/09/08 01:34:23;;;;;;;;;;;;;;;22.92;46.36;101938.16;5024656;28;1608;-39
2021/09/08 01:36:53;;;;;;;;;;;;;;;22.86;46.80;101941.41;5031780;28;1474;-40
2021/09/08 01:39:25;;;;;;;;;;;;;;;22.82;46.54;101938.09;5029065;28;1318;-40
2021/09/08 01:41:54;;;;;;;;;;;;;;;22.80;46.81;101931.13;5030167;28;1629;-40
2021/09/08 01:44:22;;;;;;;;;;;;;;;22.76;46.76;101930.56;5028746;28;1492;-40
2021/09/08 01:46:59;;;;;;;;;;;;;;;22.80;46.55;101936.50;5029676;28;1611;-40
2021/09/08 01:49:27;;;;;;;;;;;;;;;22.76;46.41;101938.63;5029614;28;1689;-40
2021/09/08 01:51:57;;;;;;;;;;;;;;;22.76;46.76;101918.88;5026313;28;1987;-40
2021/09/08 01:54:25;;;;;;;;;;;;;;;22.78;46.41;101923.19;5032271;28;1327;-40
2021/09/08 01:56:54;;;;;;;;;;;;;;;22.76;46.31;101908.97;5027947;28;1991;-40
2021/09/08 01:59:21;;;;;;;;;;;;;;;22.74;46.46;101926.25;5028834;28;1389;-40
2021/09/08 02:01:49;;;;;;;;;;;;;;;22.86;46.44;101916.25;5113449;23;3644;-42
2021/09/08 02:04:15;;;;;;;;;;;;;;;22.82;46.53;101907.59;5007743;28;1824;-42
2021/09/08 02:09:38;;;;;;;;;;;;;;;22.73;46.47;101903.00;5012095;28;2446;-42
2021/09/08 02:12:08;;;;;;;;;;;;;;;22.72;46.78;101902.13;5010725;28;1902;-42
2021/09/08 02:14:38;;;;;;;;;;;;;;;22.79;46.42;101913.25;5008725;28;1520;-42
2021/09/08 02:17:06;;;;;;;;;;;;;;;22.75;46.58;101912.63;5011157;28;1538;-42
2021/09/08 02:19:35;;;;;;;;;;;;;;;22.74;46.67;101912.75;5010782;28;1693;-42
2021/09/08 02:22:02;;;;;;;;;;;;;;;22.72;46.33;101912.03;5004742;28;1902;-42
2021/09/08 02:24:30;;;;;;;;;;;;;;;22.74;46.68;101915.47;5005601;28;1627;-42
2021/09/08 02:27:13;;;;;;;;;;;;;;;22.72;46.59;101928.22;5008035;28;1813;-42
2021/09/08 02:29:42;;;;;;;;;;;;;;;22.71;46.47;101910.34;5004727;28;1485;-42
2021/09/08 02:32:11;;;;;;;;;;;;;;;22.64;47.10;101910.88;5003432;28;1906;-42
2021/09/08 02:34:39;;;;;;;;;;;;;;;22.64;46.58;101900.09;5002270;28;1457;-42
2021/09/08 02:39:48;;;;;;;;;;;;;;;22.70;46.39;101935.59;5010298;28;2634;-43
2021/09/08 02:42:21;;;;;;;;;;;;;;;22.61;46.51;101913.84;5010378;28;1619;-42
2021/09/08 02:44:51;;;;;;;;;;;;;;;22.65;46.35;101909.03;5007818;28;1368;-42
2021/09/08 02:47:25;;;;;;;;;;;;;;;22.68;46.35;101924.09;5004621;28;1422;-42
2021/09/08 02:49:59;;;;;;;;;;;;;;;22.70;46.61;101935.59;5007250;28;1476;-42
2021/09/08 02:52:26;;;;;;;;;;;;;;;22.63;46.47;101925.34;5002958;28;1971;-42
2021/09/08 02:54:56;;;;;;;;;;;;;;;22.59;45.94;101918.50;5005882;28;1623;-42
2021/09/08 02:57:26;;;;;;;;;;;;;;;22.60;46.58;101925.63;5006597;28;1960;-42
2021/09/08 02:59:54;;;;;;;;;;;;;;;22.61;46.55;101911.13;5006793;28;1313;-42
2021/09/08 03:02:29;;;;;;;;;;;;;;;22.71;46.39;101937.31;5007029;28;1715;-42
2021/09/08 03:05:03;;;;;;;;;;;;;;;22.60;46.52;101928.31;5002323;28;1944;-42
2021/09/08 03:07:30;;;;;;;;;;;;;;;22.61;45.99;101938.09;5006564;28;1656;-42
2021/09/08 03:09:57;;;;;;;;;;;;;;;22.66;45.88;101939.53;5011321;28;1338;-42
2021/09/08 03:12:23;;;;;;;;;;;;;;;22.64;46.06;101937.84;4969022;28;2455;-42
2021/09/08 03:14:54;;;;;;;;;;;;;;;22.55;46.39;101927.84;5009851;28;1645;-42
2021/09/08 03:17:25;;;;;;;;;;;;;;;22.57;46.90;101931.25;5011267;28;1403;-42
2021/09/08 03:19:51;;;;;;;;;;;;;;;22.60;46.28;101924.75;5007625;28;1536;-42
2021/09/08 03:22:17;;;;;;;;;;;;;;;22.59;46.12;101925.75;5010587;28;1524;-42
2021/09/08 03:24:46;;;;;;;;;;;;;;;22.50;46.45;101911.22;5009457;28;1281;-42
2021/09/08 03:27:13;;;;;;;;;;;;;;;22.51;46.80;101903.97;5003698;28;1527;-42
2021/09/08 03:29:39;;;;;;;;;;;;;;;22.52;45.98;101927.25;5006332;28;1500;-41
2021/09/08 03:32:12;;;;;;;;;;;;;;;22.55;46.31;101925.13;5009146;28;1979;-42
2021/09/08 03:34:39;;;;;;;;;;;;;;;22.51;44.78;101920.16;5005812;28;1646;-42
2021/09/08 03:39:46;;;;;;;;;;;;;;;22.66;42.58;101942.25;5007651;28;1731;-42
2021/09/08 03:42:22;;;;;;;;;;;;;;;22.64;41.77;101945.94;5006232;28;1864;-42
2021/09/08 03:44:50;;;;;;;;;;;;;;;22.73;41.57;101938.03;5006026;28;1642;-42
2021/09/08 03:47:20;;;;;;;;;;;;;;;22.58;42.18;101938.38;5007928;28;1509;-42
2021/09/08 03:49:48;;;;;;;;;;;;;;;22.50;42.12;101948.06;5007528;28;1560;-41
2021/09/08 03:52:17;;;;;;;;;;;;;;;22.55;41.63;101956.66;5008617;28;1906;-41
2021/09/08 03:54:44;;;;;;;;;;;;;;;22.53;41.97;101947.84;5014735;28;1257;-42
2021/09/08 03:57:19;;;;;;;;;;;;;;;22.52;41.70;101955.06;5013562;28;1794;-42
2021/09/08 03:59:49;;;;;;;;;;;;;;;22.38;41.39;101939.19;5013009;28;1512;-42
2021/09/08 04:02:18;;;;;;;;;;;;;;;22.39;41.63;101946.31;5010254;28;2062;-42
2021/09/08 04:04:50;;;;;;;;;;;;;;;22.36;41.70;101938.47;5008774;28;1688;-42
2021/09/08 04:07:18;;;;;;;;;;;;;;;22.32;41.09;101948.66;5012029;28;1493;-42
2021/09/08 04:09:44;;;;;;;;;;;;;;;22.31;41.71;101938.84;5013733;28;1929;-42
2021/09/08 04:12:11;;;;;;;;;;;;;;;22.36;42.54;101938.47;5008035;28;1981;-41
2021/09/08 04:17:20;;;;;;;;;;;;;;;22.26;41.27;101943.75;5007473;28;1597;-42
2021/09/08 04:19:53;;;;;;;;;;;;;;;22.23;41.88;101950.25;5009806;28;1898;-42
2021/09/08 04:22:28;;;;;;;;;;;;;;;22.34;41.42;101945.81;5011917;28;1980;-42
2021/09/08 04:24:58;;;;;;;;;;;;;;;22.32;41.21;101945.09;5006990;28;1747;-41
2021/09/08 04:27:25;;;;;;;;;;;;;;;22.51;43.14;101939.88;5009100;28;1684;-42
2021/09/08 04:29:54;;;;;;;;;;;;;;;22.67;43.51;101946.66;5006867;28;1472;-42
2021/09/08 04:32:23;;;;;;;;;;;;;;;22.73;44.57;101946.13;5012863;28;1967;-42
2021/09/08 04:34:52;;;;;;;;;;;;;;;22.84;44.33;101940.69;5004071;28;1756;-42
2021/09/08 04:37:19;;;;;;;;;;;;;;;22.96;44.60;101938.72;5008866;28;1586;-42
2021/09/08 04:39:54;;;;;;;;;;;;;;;22.92;44.95;101940.88;5003421;28;1753;-42
2021/09/08 04:42:24;;;;;;;;;;;;;;;22.79;44.87;101957.22;5007174;28;1757;-42
2021/09/08 04:44:50;;;;;;;;;;;;;;;23.03;44.93;101959.69;5012795;28;1566;-43
2021/09/08 04:47:18;;;;;;;;;;;;;;;23.24;44.84;101948.03;5011818;28;1698;-42
2021/09/08 04:49:47;;;;;;;;;;;;;;;23.15;45.26;101965.00;5003877;28;1605;-42
2021/09/08 04:52:19;;;;;;;;;;;;;;;23.03;45.82;101975.03;4998010;28;1906;-41
2021/09/08 04:54:45;;;;;;;;;;;;;;;22.98;45.85;101956.50;5007251;28;1456;-41
2021/09/08 04:57:15;;;;;;;;;;;;;;;22.97;46.32;101986.31;5010686;28;1573;-41
2021/09/08 04:59:42;;;;;;;;;;;;;;;23.25;46.04;101957.81;5011831;28;1686;-42
2021/09/08 05:02:09;;;;;;;;;;;;;;;23.34;45.97;101964.25;5011645;28;1769;-42
2021/09/08 05:04:39;;;;;;;;;;;;;;;23.32;46.40;101975.19;4988133;28;1728;-42
2021/09/08 05:07:06;;;;;;;;;;;;;;;23.31;46.43;101976.16;5004866;28;1752;-42
2021/09/08 05:09:39;;;;;;;;;;;;;;;23.38;46.73;101974.66;5012336;28;1708;-42
2021/09/08 05:12:15;;;;;;;;;;;;;;;23.67;45.93;101962.25;5011278;28;1980;-42
2021/09/08 05:14:42;;;;;;;;;;;;;;;23.49;46.39;101964.75;5012726;28;1591;-42
2021/09/08 05:17:11;;;;;;;;;;;;;;;23.43;46.63;101977.78;5011622;28;1432;-42
2021/09/08 05:19:41;;;;;;;;;;;;;;;23.43;46.85;101988.56;5011058;28;1759;-42
2021/09/08 05:22:07;;;;;;;;;;;;;;;23.65;46.18;101980.44;5006617;28;2865;-42
2021/09/08 05:24:39;;;;;;;;;;;;;;;23.76;46.43;101983.03;5012160;28;1599;-42
2021/09/08 05:27:06;;;;;;;;;;;;;;;24.03;46.04;101974.28;5010637;28;1705;-42
2021/09/08 05:29:32;;;;;;;;;;;;;;;24.19;45.83;101973.75;5009235;28;1602;-42
2021/09/08 05:32:00;;;;;;;;;;;;;;;24.21;46.26;101975.34;5002409;28;1910;-43
2021/09/08 05:34:27;;;;;;;;;;;;;;;24.11;46.33;101971.75;5010146;28;1624;-42
2021/09/08 05:36:56;;;;;;;;;;;;;;;24.14;46.26;101984.16;5000869;28;1639;-42
2021/09/08 05:39:31;;;;;;;;;;;;;;;23.95;46.60;101979.53;5009366;28;1549;-43
2021/09/08 05:42:00;;;;;;;;;;;;;;;24.01;46.47;101970.88;5007407;28;1623;-42
2021/09/08 05:44:26;;;;;;;;;;;;;;;24.11;46.84;101966.34;5011698;28;1948;-42
2021/09/08 05:46:53;;;;;;;;;;;;;;;24.16;46.75;101963.25;5007871;28;1550;-42
2021/09/08 05:49:20;;;;;;;;;;;;;;;24.02;47.85;101962.63;5007581;28;1564;-42
2021/09/08 05:51:47;;;;;;;;;;;;;;;24.17;47.67;101957.69;5011330;28;2003;-43
2021/09/08 05:54:15;;;;;;;;;;;;;;;24.26;47.14;101947.88;5002501;28;1439;-43
2021/09/08 05:56:42;;;;;;;;;;;;;;;24.37;47.39;101949.56;5009419;28;1783;-43
2021/09/08 05:59:20;;;;;;;;;;;;;;;24.41;46.98;101968.09;5003045;28;1549;-42
2021/09/08 06:01:49;;;;;;;;;;;;;;;24.46;47.25;101964.09;5007009;28;1608;-43
2021/09/08 06:04:20;;;;;;;;;;;;;;;24.53;47.29;101958.03;4998320;28;1607;-43
2021/09/08 06:06:52;;;;;;;;;;;;;;;24.63;47.64;101970.66;5003933;28;1842;-43
2021/09/08 06:09:21;;;;;;;;;;;;;;;24.60;47.66;101963.69;5002001;28;1789;-43
2021/09/08 06:11:48;;;;;;;;;;;;;;;24.56;47.84;101968.53;5009204;28;1911;-43
2021/09/08 06:14:21;;;;;;;;;;;;;;;24.52;47.82;101972.53;5010742;28;1714;-43
2021/09/08 06:16:55;;;;;;;;;;;;;;;24.78;47.44;101963.81;5003937;28;1707;-42
2021/09/08 06:19:24;;;;;;;;;;;;;;;24.77;47.89;101964.78;5011372;28;1945;-44
2021/09/08 06:21:54;;;;;;;;;;;;;;;24.80;47.38;101967.22;5010563;28;1815;-43
2021/09/08 06:24:29;;;;;;;;;;;;;;;24.76;48.14;101972.06;5010003;28;1866;-43
2021/09/08 06:26:56;;;;;;;;;;;;;;;24.62;48.65;101967.09;5005755;28;1702;-43
2021/09/08 06:29:31;;;;;;;;;;;;;;;24.65;48.25;101976.78;5004982;28;1457;-43
2021/09/08 06:31:57;;;;;;;;;;;;;;;24.63;48.75;101973.38;5004463;28;1910;-44
2021/09/08 06:34:28;;;;;;;;;;;;;;;24.56;48.04;101970.38;5002331;28;1714;-43
2021/09/08 06:36:57;;;;;;;;;;;;;;;24.78;47.90;101969.22;5002712;28;1690;-43
2021/09/08 06:39:26;;;;;;;;;;;;;;;24.76;45.67;101969.38;5005470;28;1775;-43
2021/09/08 06:41:57;;;;;;;;;;;;;;;24.29;45.95;101982.75;5010544;28;1581;-43
2021/09/08 06:44:28;;;;;;;;;;;;;;;23.75;45.22;101975.91;5000896;28;1661;-43
2021/09/08 06:46:55;;;;;;;;;;;;;;;23.62;45.06;101985.13;5006959;28;1637;-43
2021/09/08 06:49:24;;;;;;;;;;;;;;;23.44;45.12;101973.25;5008846;28;1618;-43
2021/09/08 06:51:52;;;;;;;;;;;;;;;23.48;44.83;101979.25;5007857;28;1902;-43
2021/09/08 06:54:22;;;;;;;;;;;;;;;23.55;44.77;101977.69;5002687;28;1360;-43
2021/09/08 06:56:56;;;;;;;;;;;;;;;23.59;44.04;101971.03;5008103;28;1432;-43
2021/09/08 06:59:28;;;;;;;;;;;;;;;23.74;44.08;101991.28;5008411;28;1460;-43
2021/09/08 07:01:55;;;;;;;;;;;;;;;23.72;43.77;101982.44;5008132;28;1615;-43
2021/09/08 07:04:21;;;;;;;;;;;;;;;23.56;43.88;101982.13;5001161;28;1564;-43
2021/09/08 07:06:48;;;;;;;;;;;;;;;23.59;44.20;101971.03;5010204;28;1559;-43
2021/09/08 07:09:24;;;;;;;;;;;;;;;23.53;43.85;101967.03;5003756;28;1649;-43
2021/09/08 07:11:54;;;;;;;;;;;;;;;23.52;43.26;101986.09;5006104;28;2044;-43
2021/09/08 07:14:20;;;;;;;;;;;;;;;23.87;42.98;101985.63;5000422;28;1651;-43
2021/09/08 07:16:55;;;;;;;;;;;;;;;23.70;43.08;101979.03;5010545;28;1796;-43
2021/09/08 07:22:02;;;;;;;;;;;;;;;23.40;42.99;101972.66;5006039;28;2425;-43
2021/09/08 07:24:30;;;;;;;;;;;;;;;23.60;42.54;101972.75;5010788;28;1389;-43
2021/09/08 07:26:57;;;;;;;;;;;;;;;23.74;42.57;101985.88;5009925;28;1757;-43
2021/09/08 07:29:25;;;;;;;;;;;;;;;23.96;42.63;101995.63;5008489;28;1693;-43
2021/09/08 07:31:55;;;;;;;;;;;;;;;24.05;41.89;101980.41;5010170;28;1906;-42
2021/09/08 07:34:24;;;;;;;;;;;;;;;24.09;42.21;101981.84;5003971;28;1622;-42
2021/09/08 07:36:56;;;;;;;;;;;;;;;24.31;41.71;101991.56;5008521;28;1436;-43
2021/09/08 07:39:24;;;;;;;;;;;;;;;24.78;40.71;101990.88;5014531;28;1724;-43
2021/09/08 07:41:52;;;;;;;;;;;;;;;25.08;40.96;101981.69;5010740;28;1710;-43
2021/09/08 07:44:18;;;;;;;;;;;;;;;24.88;42.19;101977.34;5009103;28;1546;-43
2021/09/08 07:46:47;;;;;;;;;;;;;;;24.88;41.81;101985.44;5011176;28;1927;-43
2021/09/08 07:49:17;;;;;;;;;;;;;;;25.17;41.13;101990.81;5010494;28;1679;-43
2021/09/08 07:51:47;;;;;;;;;;;;;;;25.22;42.32;101977.69;5008149;28;1977;-44
2021/09/08 07:54:13;;;;;;;;;;;;;;;24.68;43.73;101974.66;5003862;28;1505;-43
2021/09/08 07:56:41;;;;;;;;;;;;;;;24.59;43.19;101980.91;5012114;28;2089;-43
2021/09/08 07:59:08;;;;;;;;;;;;;;;24.67;42.39;101993.72;5011319;28;1631;-44
2021/09/08 08:01:35;;;;;;;;;;;;;;;24.42;43.58;101979.75;5010671;28;1673;-43
2021/09/08 08:04:04;;;;;;;;;;;;;;;24.66;43.08;101987.47;5014333;28;1573;-43
2021/09/08 08:06:39;;;;;;;;;;;;;;;25.07;43.41;101954.75;5005880;28;1757;-43
2021/09/08 08:09:13;;;;;;;;;;;;;;;25.43;43.21;101958.53;5013591;28;1823;-43
2021/09/08 08:11:42;;;;;;;;;;;;;;;25.13;44.11;101951.50;5010541;28;1755;-43
2021/09/08 08:14:16;;;;;;;;;;;;;;;24.95;44.83;101963.06;5005644;28;1902;-43
2021/09/08 08:16:43;;;;;;;;;;;;;;;24.80;45.78;101961.81;5006841;28;1644;-43
2021/09/08 08:19:09;;;;;;;;;;;;;;;24.90;45.47;101956.38;5011543;28;1648;-43
2021/09/08 08:21:42;;;;;;;;;;;;;;;25.00;45.93;101960.75;5001585;28;1783;-46
2021/09/08 08:24:17;;;;;;;;;;;;;;;24.61;46.35;101971.66;5004324;28;2007;-47
2021/09/08 08:26:43;;;;;;;;;;;;;;;25.02;44.72;101961.47;4998635;28;1779;-46
2021/09/08 08:29:13;;;;;;;;;;;;;;;24.86;45.52;101950.41;5005679;28;1453;-46
2021/09/08 08:31:40;;;;;;;;;;;;;;;24.83;45.29;101944.44;5005088;28;1567;-47
2021/09/08 08:34:08;;;;;;;;;;;;;;;24.90;45.10;101954.53;5012235;28;1977;-46
2021/09/08 08:36:35;;;;;;;;;;;;;;;25.20;44.28;101944.47;5010581;28;1727;-46
2021/09/08 08:39:06;;;;;;;;;;;;;;;25.32;44.35;101943.31;5008943;28;1879;-47
2021/09/08 08:41:35;;;;;;;;;;;;;;;25.10;44.42;101951.78;5011298;28;1600;-47
2021/09/08 08:44:05;;;;;;;;;;;;;;;25.22;44.66;101938.94;5006476;28;1712;-46
2021/09/08 08:49:13;;;;;;;;;;;;;;;24.83;44.67;101922.78;5008937;28;1852;-46
2021/09/08 08:51:42;;;;;;;;;;;;;;;25.21;44.00;101938.06;5011201;28;1484;-46
2021/09/08 08:54:18;;;;;;;;;;;;;;;25.26;43.46;101941.19;5009164;28;1910;-47
2021/09/08 08:56:45;;;;;;;;;;;;;;;25.27;43.75;101918.56;5005110;28;1651;-45
2021/09/08 08:59:14;;;;;;;;;;;;;;;25.05;44.82;101905.34;5003222;28;2069;-46
2021/09/08 09:01:44;;;;;;;;;;;;;;;25.44;43.67;101922.31;5010230;28;2170;-46
2021/09/08 09:04:13;;;;;;;;;;;;;;;25.25;43.75;101917.84;5009860;28;1734;-46
2021/09/08 09:06:42;;;;;;;;;;;;;;;25.33;44.34;101917.97;5005237;28;1639;-47
2021/09/08 09:09:23;;;;;;;;;;;;;;;25.26;43.37;101914.13;5006398;28;1570;-47
2021/09/08 09:11:50;;;;;;;;;;;;;;;25.43;43.22;101922.44;5010249;28;1852;-46
2021/09/08 09:14:38;;;;;;;;;;;;;;;25.00;44.89;101920.16;5011801;28;1977;-47
2021/09/08 09:17:11;;;;;;;;;;;;;;;25.15;44.13;101915.16;5004791;28;1742;-46
2021/09/08 09:19:48;;;;;;;;;;;;;;;25.26;42.75;101918.69;5008529;28;1501;-50
2021/09/08 09:22:17;;;;;;;;;;;;;;;25.31;43.89;101908.28;5005664;28;1686;-46
2021/09/08 09:24:52;;;;;;;;;;;;;;;25.41;44.12;101906.38;5002463;28;1711;-46
2021/09/08 09:27:18;;;;;;;;;;;;;;;25.53;43.74;101898.91;5004798;28;1710;-46
2021/09/08 09:29:48;;;;;;;;;;;;;;;25.08;44.38;101894.22;5006994;28;1600;-46
2021/09/08 09:32:18;;;;;;;;;;;;;;;25.14;43.25;101893.63;5007065;28;1902;-47
2021/09/08 09:34:46;;;;;;;;;;;;;;;25.36;44.22;101877.03;5004156;28;1596;-46
2021/09/08 09:37:12;;;;;;;;;;;;;;;25.36;43.71;101885.16;5008081;28;1681;-46
2021/09/08 09:39:40;;;;;;;;;;;;;;;24.92;42.43;101890.28;5003998;28;1583;-46
2021/09/08 09:42:11;;;;;;;;;;;;;;;24.53;42.75;101892.25;5004224;28;1467;-46
2021/09/08 09:44:39;;;;;;;;;;;;;;;24.53;42.16;101876.88;4999874;28;1793;-46
2021/09/08 09:47:08;;;;;;;;;;;;;;;24.55;42.77;101893.81;5009347;28;1786;-46
2021/09/08 09:49:35;;;;;;;;;;;;;;;24.24;43.13;101889.56;4999263;28;1854;-46
2021/09/08 09:52:06;;;;;;;;;;;;;;;24.24;42.07;101884.16;5007914;28;1671;-46
2021/09/08 09:54:33;;;;;;;;;;;;;;;24.19;42.97;101892.66;5012193;28;1959;-46
2021/09/08 09:57:05;;;;;;;;;;;;;;;24.70;42.51;101869.03;5006723;28;1704;-47
2021/09/08 09:59:45;;;;;;;;;;;;;;;24.93;41.10;101864.97;5009421;28;1539;-46
2021/09/08 10:02:16;;;;;;;;;;;;;;;25.18;41.27;101862.56;5009676;28;1611;-46
2021/09/08 10:04:45;;;;;;;;;;;;;;;24.91;41.99;101860.66;5011444;28;1753;-46
2021/09/08 10:07:15;;;;;;;;;;;;;;;24.90;43.21;101858.97;5008083;28;1500;-46
2021/09/08 10:09:41;;;;;;;;;;;;;;;25.39;41.69;101859.66;5008235;28;1539;-46
2021/09/08 10:12:10;;;;;;;;;;;;;;;25.39;42.20;101854.22;5005804;28;1860;-46
2021/09/08 10:14:52;;;;;;;;;;;;;;;25.44;41.84;101848.34;4999579;28;1902;-46
2021/09/08 10:17:19;;;;;;;;;;;;;;;25.45;42.49;101836.53;5005647;28;1766;-46
2021/09/08 10:19:50;;;;;;;;;;;;;;;25.58;42.17;101847.81;5009703;28;1486;-46
2021/09/08 10:22:17;;;;;;;;;;;;;;;25.13;43.36;101848.63;5006869;28;1648;-46
2021/09/08 10:24:45;;;;;;;;;;;;;;;25.24;42.74;101853.03;5012361;28;2051;-46
2021/09/08 10:27:27;;;;;;;;;;;;;;;25.40;42.05;101854.06;5008723;28;1858;-45
2021/09/08 10:30:02;;;;;;;;;;;;;;;25.40;42.08;101832.38;5003136;28;1681;-46
2021/09/08 10:32:29;;;;;;;;;;;;;;;25.46;42.78;101828.22;5003564;28;1652;-46
2021/09/08 10:34:59;;;;;;;;;;;;;;;25.51;42.47;101820.50;5005962;28;1902;-47
2021/09/08 10:37:41;;;;;;;;;;;;;;;25.58;40.56;101808.03;5008080;28;1710;-46
2021/09/08 10:40:11;;;;;;;;;;;;;;;25.34;40.31;101827.59;5001581;28;1727;-46
2021/09/08 10:42:52;;;;;;;;;;;;;;;25.12;41.19;101830.69;5010497;28;1704;-46
2021/09/08 10:45:35;;;;;;;;;;;;;;;25.06;41.85;101812.34;5008402;28;1497;-46
2021/09/08 10:48:05;;;;;;;;;;;;;;;25.19;40.63;101812.84;5000262;28;1581;-45
2021/09/08 10:50:48;;;;;;;;;;;;;;;25.09;44.40;101814.72;5008736;28;1666;-46
2021/09/08 10:53:30;;;;;;;;;;;;;;;24.70;44.84;101821.16;5009662;28;1906;-46
2021/09/08 10:55:57;;;;;;;;;;;;;;;24.73;45.93;101804.66;4999286;28;1933;-46
2021/09/08 10:58:24;;;;;;;;;;;;;;;24.64;45.70;101800.13;5007521;28;1757;-45
2021/09/08 11:00:52;;;;;;;;;;;;;;;24.51;45.97;101816.69;5013753;28;1701;-46
2021/09/08 11:03:27;;;;;;;;;;;;;;;24.42;45.82;101806.72;5015969;28;1508;-46
2021/09/08 11:05:59;;;;;;;;;;;;;;;24.30;45.43;101791.66;5008096;28;2051;-45
2021/09/08 11:08:27;;;;;;;;;;;;;;;24.67;45.81;101804.38;5015869;28;1698;-45
2021/09/08 11:11:09;;;;;;;;;;;;;;;24.78;42.91;101806.91;5009811;28;1894;-45
2021/09/08 11:13:54;;;;;;;;;;;;;;;24.55;41.87;101803.72;5006246;28;1914;-45
2021/09/08 11:16:22;;;;;;;;;;;;;;;24.60;41.78;101802.28;5012909;28;1495;-46
2021/09/08 11:18:51;;;;;;;;;;;;;;;24.70;42.64;101791.41;5012467;28;1814;-47
2021/09/08 11:21:18;;;;;;;;;;;;;;;25.13;40.86;101779.09;5012066;28;1806;-45
2021/09/08 11:23:46;;;;;;;;;;;;;;;24.90;41.70;101788.63;5007403;28;1947;-46
2021/09/08 11:26:13;;;;;;;;;;;;;;;24.99;41.81;101788.59;5015420;28;1941;-46
2021/09/08 11:28:43;;;;;;;;;;;;;;;24.91;41.39;101774.97;5003588;28;1635;-46
2021/09/08 11:31:11;;;;;;;;;;;;;;;24.92;44.32;101771.25;5014451;28;1637;-45
2021/09/08 11:33:37;;;;;;;;;;;;;;;24.93;44.62;101750.44;5006598;28;1914;-45
2021/09/08 11:36:21;;;;;;;;;;;;;;;24.78;45.10;101755.50;5009473;28;1570;-46
2021/09/08 11:38:56;;;;;;;;;;;;;;;24.85;42.34;101748.50;5004829;28;1645;-45
2021/09/08 11:41:31;;;;;;;;;;;;;;;24.82;45.75;101740.69;5014216;28;1653;-45
2021/09/08 11:44:09;;;;;;;;;;;;;;;25.18;45.25;101738.03;5009874;28;1756;-44
2021/09/08 11:46:38;;;;;;;;;;;;;;;24.79;46.17;101744.56;5010617;28;1702;-45
2021/09/08 11:49:11;;;;;;;;;;;;;;;24.52;45.61;101742.66;5004885;28;1821;-45
2021/09/08 11:51:43;;;;;;;;;;;;;;;24.50;45.10;101741.97;5013155;28;1700;-46
2021/09/08 11:54:17;;;;;;;;;;;;;;;24.46;46.65;101737.81;5010354;28;1985;-45
2021/09/08 11:56:55;;;;;;;;;;;;;;;24.67;47.15;101734.06;5014082;28;1631;-45
2021/09/08 11:59:28;;;;;;;;;;;;;;;24.94;46.31;101728.66;5011218;28;2158;-45
2021/09/08 12:01:57;;;;;;;;;;;;;;;24.83;46.35;101733.41;5009840;28;1776;-45
2021/09/08 12:07:15;;;;;;;;;;;;;;;24.45;46.25;101717.19;5007340;28;2505;-45
2021/09/08 12:09:43;;;;;;;;;;;;;;;24.28;44.48;101734.19;5014322;28;1580;-45
2021/09/08 12:12:15;;;;;;;;;;;;;;;24.52;45.18;101728.31;5010311;28;1609;-44
2021/09/08 12:14:53;;;;;;;;;;;;;;;24.67;46.58;101724.13;5014917;28;1976;-45
2021/09/08 12:17:21;;;;;;;;;;;;;;;24.67;46.77;101723.25;5012108;28;1691;-45
2021/09/08 12:20:01;;;;;;;;;;;;;;;24.63;47.17;101713.72;5008738;28;1620;-45
2021/09/08 12:22:35;;;;;;;;;;;;;;;25.14;45.48;101729.38;5007689;28;1971;-44
2021/09/08 12:25:04;;;;;;;;;;;;;;;24.91;45.89;101701.03;5002386;28;1798;-45
2021/09/08 12:27:35;;;;;;;;;;;;;;;24.93;45.85;101702.59;5004937;28;1670;-45
2021/09/08 12:30:26;;;;;;;;;;;;;;;25.24;45.16;101717.66;5011871;28;1980;-45
2021/09/08 12:32:54;;;;;;;;;;;;;;;24.61;45.52;101709.34;5003085;28;1751;-44
2021/09/08 12:35:38;;;;;;;;;;;;;;;24.77;45.61;101697.84;5002892;28;1906;-45
2021/09/08 12:38:21;;;;;;;;;;;;;;;24.79;45.35;101689.59;5005933;28;1721;-45
2021/09/08 12:41:02;;;;;;;;;;;;;;;24.92;45.10;101687.34;4994736;28;2624;-45
2021/09/08 12:43:44;;;;;;;;;;;;;;;24.77;45.35;101683.47;5013850;28;1595;-45
2021/09/08 12:46:15;;;;;;;;;;;;;;;24.58;42.30;101685.28;5001535;28;1680;-45
2021/09/08 12:48:42;;;;;;;;;;;;;;;24.52;40.95;101680.47;5012815;28;1962;-45
2021/09/08 12:51:10;;;;;;;;;;;;;;;25.14;40.92;101675.22;5008363;28;1667;-44
2021/09/08 12:53:38;;;;;;;;;;;;;;;24.66;40.79;101686.41;5001461;28;1977;-45
2021/09/08 12:56:05;;;;;;;;;;;;;;;24.60;40.48;101691.38;5013982;28;1568;-45
2021/09/08 12:58:35;;;;;;;;;;;;;;;24.83;40.25;101674.78;5011732;28;1466;-45
2021/09/08 13:01:01;;;;;;;;;;;;;;;24.57;41.93;101680.88;5005510;28;1773;-45
2021/09/08 13:03:31;;;;;;;;;;;;;;;24.61;41.63;101668.78;5006666;28;1738;-45
2021/09/08 13:06:02;;;;;;;;;;;;;;;24.61;40.85;101670.59;5008687;28;2036;-45
2021/09/08 13:08:30;;;;;;;;;;;;;;;24.77;44.44;101675.34;5010490;28;1698;-45
2021/09/08 13:10:58;;;;;;;;;;;;;;;24.66;43.56;101656.63;4997558;28;1305;-45
2021/09/08 13:13:26;;;;;;;;;;;;;;;24.77;40.72;101661.81;5011851;28;1969;-45
2021/09/08 13:15:53;;;;;;;;;;;;;;;24.70;41.60;101661.59;5011801;28;1737;-45
2021/09/08 13:18:19;;;;;;;;;;;;;;;25.27;43.09;101655.06;5013463;28;2019;-45
2021/09/08 13:20:50;;;;;;;;;;;;;;;25.28;43.25;101654.94;5010677;28;1585;-44
2021/09/08 13:23:19;;;;;;;;;;;;;;;24.89;44.96;101644.41;5009733;28;1746;-47
2021/09/08 13:25:46;;;;;;;;;;;;;;;24.36;46.42;101656.75;5008657;28;1835;-48